sensor_id;sensor_type;location;lat;lon;timestamp;pressure;altitude;pressure_sealevel;temperature;humidity
55032;BME280;40928;51.076;7.950;2023-04-01T00:00:19;95026.56;;;7.09;100.00
55032;BME280;40928;51.076;7.950;2023-04-01T00:02:46;95035.03;;;7.06;100.00
55032;BME280;40928;51.076;7.950;2023-04-01T00:05:13;95013.00;;;7.11;100.00
55032;BME280;40928;51.076;7.950;2023-04-01T00:07:39;95011.97;;;7.07;100.00
55032;BME280;40928;51.076;7.950;2023-04-01T00:10:10;95018.59;;;6.99;100.00
55032;BME280;40928;51.076;7.950;2023-04-01T00:12:38;95022.31;;;7.03;100.00
55032;BME280;40928;51.076;7.950;2023-04-01T00:15:05;95022.84;;;7.05;100.00
55032;BME280;40928;51.076;7.950;2023-04-01T00:17:33;95017.53;;;7.10;100.00
55032;BME280;40928;51.076;7.950;2023-04-01T00:19:59;95012.75;;;7.18;100.00
55032;BME280;40928;51.076;7.950;2023-04-01T00:22:41;95021.25;;;7.09;100.00
55032;BME280;40928;51.076;7.950;2023-04-01T00:25:27;95020.44;;;7.09;100.00
55032;BME280;40928;51.076;7.950;2023-04-01T00:27:55;95021.78;;;7.01;100.00
55032;BME280;40928;51.076;7.950;2023-04-01T00:30:21;95018.34;;;7.00;100.00
55032;BME280;40928;51.076;7.950;2023-04-01T00:32:51;95015.94;;;6.99;100.00
55032;BME280;40928;51.076;7.950;2023-04-01T00:35:20;94998.94;;;7.05;100.00
55032;BME280;40928;51.076;7.950;2023-04-01T00:37:46;95008.78;;;6.99;100.00
55032;BME280;40928;51.076;7.950;2023-04-01T00:40:33;95012.47;;;6.93;100.00
55032;BME280;40928;51.076;7.950;2023-04-01T00:43:00;95016.72;;;6.94;100.00
55032;BME280;40928;51.076;7.950;2023-04-01T00:48:00;95011.16;;;6.96;100.00
55032;BME280;40928;51.076;7.950;2023-04-01T00:50:28;95005.06;;;7.00;100.00
55032;BME280;40928;51.076;7.950;2023-04-01T00:52:54;95004.78;;;7.02;100.00
55032;BME280;40928;51.076;7.950;2023-04-01T00:55:21;95002.13;;;7.02;100.00
55032;BME280;40928;51.076;7.950;2023-04-01T00:57:48;94997.63;;;7.08;100.00
55032;BME280;40928;51.076;7.950;2023-04-01T01:00:19;95011.69;;;7.03;100.00
55032;BME280;40928;51.076;7.950;2023-04-01T01:02:47;95006.94;;;7.00;100.00
55032;BME280;40928;51.076;7.950;2023-04-01T01:05:15;95005.31;;;7.04;100.00
55032;BME280;40928;51.076;7.950;2023-04-01T01:08:05;95000.00;;;7.04;100.00
55032;BME280;40928;51.076;7.950;2023-04-01T01:10:33;95006.38;;;7.03;100.00
55032;BME280;40928;51.076;7.950;2023-04-01T01:18:35;95000.56;;;6.96;100.00
55032;BME280;40928;51.076;7.950;2023-04-01T01:27:17;94979.84;;;6.93;100.00
55032;BME280;40928;51.076;7.950;2023-04-01T01:38:12;94991.78;;;6.95;100.00
55032;BME280;40928;51.076;7.950;2023-04-01T01:40:45;94985.69;;;6.95;100.00
55032;BME280;40928;51.076;7.950;2023-04-01T01:43:16;94988.09;;;6.91;100.00
55032;BME280;40928;51.076;7.950;2023-04-01T01:45:48;94972.16;;;6.86;100.00
55032;BME280;40928;51.076;7.950;2023-04-01T01:48:16;94988.34;;;6.95;100.00
55032;BME280;40928;51.076;7.950;2023-04-01T01:50:44;94973.75;;;6.92;100.00
55032;BME280;40928;51.076;7.950;2023-04-01T01:55:50;94972.16;;;6.91;100.00
55032;BME280;40928;51.076;7.950;2023-04-01T02:01:03;94973.47;;;6.89;100.00
55032;BME280;40928;51.076;7.950;2023-04-01T02:03:30;94975.06;;;6.90;100.00
55032;BME280;40928;51.076;7.950;2023-04-01T02:06:00;94995.78;;;6.82;100.00
55032;BME280;40928;51.076;7.950;2023-04-01T02:08:52;94971.88;;;6.88;100.00
55032;BME280;40928;51.076;7.950;2023-04-01T02:11:28;94971.34;;;6.85;100.00
55032;BME280;40928;51.076;7.950;2023-04-01T02:14:01;94970.84;;;6.83;100.00
55032;BME280;40928;51.076;7.950;2023-04-01T02:19:53;94964.22;;;6.86;100.00
55032;BME280;40928;51.076;7.950;2023-04-01T02:22:32;94971.88;;;6.88;100.00
55032;BME280;40928;51.076;7.950;2023-04-01T02:25:17;94963.13;;;6.82;100.00
55032;BME280;40928;51.076;7.950;2023-04-01T02:27:44;94969.78;;;6.79;100.00
55032;BME280;40928;51.076;7.950;2023-04-01T02:30:13;94972.44;;;6.84;100.00
55032;BME280;40928;51.076;7.950;2023-04-01T02:32:39;94969.25;;;6.82;100.00
55032;BME280;40928;51.076;7.950;2023-04-01T02:35:07;94967.66;;;6.81;100.00
55032;BME280;40928;51.076;7.950;2023-04-01T02:37:35;94971.38;;;6.91;100.00
55032;BME280;40928;51.076;7.950;2023-04-01T02:40:02;94973.50;;;6.94;100.00
55032;BME280;40928;51.076;7.950;2023-04-01T02:42:28;94966.06;;;6.91;100.00
55032;BME280;40928;51.076;7.950;2023-04-01T02:44:53;94974.00;;;7.01;100.00
55032;BME280;40928;51.076;7.950;2023-04-01T02:47:19;94969.25;;;6.93;100.00
55032;BME280;40928;51.076;7.950;2023-04-01T02:49:44;94961.81;;;6.84;100.00
55032;BME280;40928;51.076;7.950;2023-04-01T02:52:10;94971.13;;;6.77;100.00
55032;BME280;40928;51.076;7.950;2023-04-01T02:54:36;94969.53;;;6.76;100.00
55032;BME280;40928;51.076;7.950;2023-04-01T02:57:01;94967.13;;;6.84;100.00
55032;BME280;40928;51.076;7.950;2023-04-01T02:59:27;94962.34;;;6.81;100.00
55032;BME280;40928;51.076;7.950;2023-04-01T03:01:52;94979.84;;;6.88;100.00
55032;BME280;40928;51.076;7.950;2023-04-01T03:04:18;94967.63;;;6.71;100.00
55032;BME280;40928;51.076;7.950;2023-04-01T03:06:43;94973.22;;;6.75;100.00
55032;BME280;40928;51.076;7.950;2023-04-01T03:09:09;94979.06;;;6.72;100.00
55032;BME280;40928;51.076;7.950;2023-04-01T03:11:34;94978.25;;;6.71;100.00
55032;BME280;40928;51.076;7.950;2023-04-01T03:14:00;94977.47;;;6.70;100.00
55032;BME280;40928;51.076;7.950;2023-04-01T03:16:26;94980.66;;;6.73;100.00
55032;BME280;40928;51.076;7.950;2023-04-01T03:18:52;94979.84;;;6.77;100.00
55032;BME280;40928;51.076;7.950;2023-04-01T03:21:22;94978.53;;;6.80;100.00
55032;BME280;40928;51.076;7.950;2023-04-01T03:23:49;94979.31;;;6.80;100.00
55032;BME280;40928;51.076;7.950;2023-04-01T03:26:15;94984.34;;;6.82;100.00
55032;BME280;40928;51.076;7.950;2023-04-01T03:28:42;94985.44;;;6.76;100.00
55032;BME280;40928;51.076;7.950;2023-04-01T03:31:08;94985.16;;;6.77;100.00
55032;BME280;40928;51.076;7.950;2023-04-01T03:33:40;94980.91;;;6.76;100.00
55032;BME280;40928;51.076;7.950;2023-04-01T03:36:06;94984.09;;;6.78;100.00
55032;BME280;40928;51.076;7.950;2023-04-01T03:38:35;94985.16;;;6.77;100.00
55032;BME280;40928;51.076;7.950;2023-04-01T03:41:01;94991.50;;;6.71;100.00
55032;BME280;40928;51.076;7.950;2023-04-01T03:43:28;94997.63;;;6.82;100.00
55032;BME280;40928;51.076;7.950;2023-04-01T03:45:53;94988.34;;;6.74;100.00
55032;BME280;40928;51.076;7.950;2023-04-01T03:48:20;94995.78;;;6.77;100.00
55032;BME280;40928;51.076;7.950;2023-04-01T03:50:46;94988.59;;;6.73;100.00
55032;BME280;40928;51.076;7.950;2023-04-01T03:53:12;94999.47;;;6.71;100.00
55032;BME280;40928;51.076;7.950;2023-04-01T03:55:40;94997.34;;;6.73;100.00
55032;BME280;40928;51.076;7.950;2023-04-01T03:58:07;94990.19;;;6.68;100.00
55032;BME280;40928;51.076;7.950;2023-04-01T04:00:34;94996.28;;;6.64;100.00
55032;BME280;40928;51.076;7.950;2023-04-01T04:03:02;94985.94;;;6.52;100.00
55032;BME280;40928;51.076;7.950;2023-04-01T04:05:34;94987.81;;;6.67;100.00
55032;BME280;40928;51.076;7.950;2023-04-01T04:08:00;94979.84;;;6.67;100.00
55032;BME280;40928;51.076;7.950;2023-04-01T04:10:26;94981.44;;;6.68;100.00
55032;BME280;40928;51.076;7.950;2023-04-01T04:12:52;94977.44;;;6.65;100.00
55032;BME280;40928;51.076;7.950;2023-04-01T04:15:20;94966.06;;;6.80;100.00
55032;BME280;40928;51.076;7.950;2023-04-01T04:17:46;94979.59;;;6.68;100.00
55032;BME280;40928;51.076;7.950;2023-04-01T04:20:15;94976.16;;;6.68;100.00
55032;BME280;40928;51.076;7.950;2023-04-01T04:22:40;94980.63;;;6.57;100.00
55032;BME280;40928;51.076;7.950;2023-04-01T04:25:08;94993.63;;;6.53;100.00
55032;BME280;40928;51.076;7.950;2023-04-01T04:27:34;94984.06;;;6.58;100.00
55032;BME280;40928;51.076;7.950;2023-04-01T04:30:11;94983.03;;;6.53;100.00
55032;BME280;40928;51.076;7.950;2023-04-01T04:32:37;94972.94;;;6.55;100.00
55032;BME280;40928;51.076;7.950;2023-04-01T04:35:03;94984.34;;;6.51;100.00
55032;BME280;40928;51.076;7.950;2023-04-01T04:37:28;94989.41;;;6.63;100.00
55032;BME280;40928;51.076;7.950;2023-04-01T04:39:54;94987.00;;;6.56;100.00
55032;BME280;40928;51.076;7.950;2023-04-01T04:42:20;94986.47;;;6.44;100.00
55032;BME280;40928;51.076;7.950;2023-04-01T04:44:46;94988.34;;;6.53;100.00
55032;BME280;40928;51.076;7.950;2023-04-01T04:47:14;94987.78;;;6.57;100.00
55032;BME280;40928;51.076;7.950;2023-04-01T04:49:40;94979.28;;;6.54;100.00
55032;BME280;40928;51.076;7.950;2023-04-01T04:52:08;94987.78;;;6.57;100.00
55032;BME280;40928;51.076;7.950;2023-04-01T04:54:33;95003.44;;;6.53;100.00
55032;BME280;40928;51.076;7.950;2023-04-01T04:57:01;94992.56;;;6.49;100.00
55032;BME280;40928;51.076;7.950;2023-04-01T04:59:31;94985.94;;;6.52;100.00
55032;BME280;40928;51.076;7.950;2023-04-01T05:02:07;94986.19;;;6.50;100.00
55032;BME280;40928;51.076;7.950;2023-04-01T05:04:36;94987.25;;;6.49;100.00
55032;BME280;40928;51.076;7.950;2023-04-01T05:07:03;95001.06;;;6.51;100.00
55032;BME280;40928;51.076;7.950;2023-04-01T05:09:32;95000.50;;;6.49;100.00
55032;BME280;40928;51.076;7.950;2023-04-01T05:11:59;94990.44;;;6.51;100.00
55032;BME280;40928;51.076;7.950;2023-04-01T05:14:28;94994.41;;;6.49;100.00
55032;BME280;40928;51.076;7.950;2023-04-01T05:17:02;94996.53;;;6.52;100.00
55032;BME280;40928;51.076;7.950;2023-04-01T05:19:28;94991.22;;;6.52;100.00
55032;BME280;40928;51.076;7.950;2023-04-01T05:21:53;95000.50;;;6.54;100.00
55032;BME280;40928;51.076;7.950;2023-04-01T05:24:19;94998.09;;;6.48;100.00
55032;BME280;40928;51.076;7.950;2023-04-01T05:26:55;95005.28;;;6.52;100.00
55032;BME280;40928;51.076;7.950;2023-04-01T05:29:22;95001.84;;;6.52;100.00
55032;BME280;40928;51.076;7.950;2023-04-01T05:31:53;94997.34;;;6.52;100.00
55032;BME280;40928;51.076;7.950;2023-04-01T05:34:19;94998.94;;;6.53;100.00
55032;BME280;40928;51.076;7.950;2023-04-01T05:36:45;95008.47;;;6.49;100.00
55032;BME280;40928;51.076;7.950;2023-04-01T05:39:10;95004.75;;;6.55;100.00
55032;BME280;40928;51.076;7.950;2023-04-01T05:41:38;95004.25;;;6.64;100.00
55032;BME280;40928;51.076;7.950;2023-04-01T05:44:04;95018.53;;;6.58;100.00
55032;BME280;40928;51.076;7.950;2023-04-01T05:46:39;95016.16;;;6.51;100.00
55032;BME280;40928;51.076;7.950;2023-04-01T05:49:18;95018.56;;;6.52;100.00
55032;BME280;40928;51.076;7.950;2023-04-01T05:51:44;95010.59;;;6.47;100.00
55032;BME280;40928;51.076;7.950;2023-04-01T05:54:09;95006.34;;;6.51;100.00
55032;BME280;40928;51.076;7.950;2023-04-01T05:56:36;95019.34;;;6.63;100.00
55032;BME280;40928;51.076;7.950;2023-04-01T05:59:02;95020.69;;;6.61;100.00
55032;BME280;40928;51.076;7.950;2023-04-01T06:01:27;95018.06;;;6.76;100.00
55032;BME280;40928;51.076;7.950;2023-04-01T06:03:53;95014.59;;;6.65;100.00
55032;BME280;40928;51.076;7.950;2023-04-01T06:06:26;95014.88;;;6.69;100.00
55032;BME280;40928;51.076;7.950;2023-04-01T06:09:06;95025.72;;;6.78;100.00
55032;BME280;40928;51.076;7.950;2023-04-01T06:12:04;95016.19;;;6.72;100.00
55032;BME280;40928;51.076;7.950;2023-04-01T06:15:04;95019.91;;;6.70;100.00
55032;BME280;40928;51.076;7.950;2023-04-01T06:20:20;95023.34;;;6.71;100.00
55032;BME280;40928;51.076;7.950;2023-04-01T06:23:18;95027.84;;;6.65;100.00
55032;BME280;40928;51.076;7.950;2023-04-01T06:26:47;95024.66;;;6.68;100.00
55032;BME280;40928;51.076;7.950;2023-04-01T06:31:58;95034.47;;;6.73;100.00
55032;BME280;40928;51.076;7.950;2023-04-01T06:37:27;95039.00;;;6.73;100.00
55032;BME280;40928;51.076;7.950;2023-04-01T06:54:53;95042.47;;;6.83;100.00
55032;BME280;40928;51.076;7.950;2023-04-01T06:57:52;95051.47;;;6.88;100.00
55032;BME280;40928;51.076;7.950;2023-04-01T07:03:10;95050.44;;;6.94;100.00
55032;BME280;40928;51.076;7.950;2023-04-01T07:05:53;95050.41;;;6.89;100.00
55032;BME280;40928;51.076;7.950;2023-04-01T07:08:24;95043.53;;;6.93;100.00
55032;BME280;40928;51.076;7.950;2023-04-01T07:13:50;95050.19;;;7.06;100.00
55032;BME280;40928;51.076;7.950;2023-04-01T07:16:41;95052.84;;;7.06;100.00
55032;BME280;40928;51.076;7.950;2023-04-01T07:19:31;95048.06;;;7.03;100.00
55032;BME280;40928;51.076;7.950;2023-04-01T07:22:10;95056.00;;;7.03;100.00
55032;BME280;40928;51.076;7.950;2023-04-01T07:25:23;95052.56;;;6.92;100.00
55032;BME280;40928;51.076;7.950;2023-04-01T07:28:15;95061.06;;;7.04;100.00
55032;BME280;40928;51.076;7.950;2023-04-01T07:30:53;95064.50;;;7.10;100.00
55032;BME280;40928;51.076;7.950;2023-04-01T07:36:24;95042.47;;;6.89;100.00
55032;BME280;40928;51.076;7.950;2023-04-01T07:47:40;95067.97;;;7.26;100.00
55032;BME280;40928;51.076;7.950;2023-04-01T07:50:29;95070.09;;;7.24;100.00
55032;BME280;40928;51.076;7.950;2023-04-01T08:00:58;95076.72;;;7.21;100.00
55032;BME280;40928;51.076;7.950;2023-04-01T08:09:23;95088.66;;;7.24;100.00
55032;BME280;40928;51.076;7.950;2023-04-01T08:15:22;95100.63;;;7.31;100.00
55032;BME280;40928;51.076;7.950;2023-04-01T08:21:03;95100.38;;;7.43;100.00
55032;BME280;40928;51.076;7.950;2023-04-01T08:23:33;95101.66;;;7.56;100.00
55032;BME280;40928;51.076;7.950;2023-04-01T08:26:06;95108.84;;;7.56;100.00
55032;BME280;40928;51.076;7.950;2023-04-01T08:28:45;95110.19;;;7.53;100.00
55032;BME280;40928;51.076;7.950;2023-04-01T08:31:19;95103.00;;;7.54;100.00
55032;BME280;40928;51.076;7.950;2023-04-01T08:33:48;95110.69;;;7.55;100.00
55032;BME280;40928;51.076;7.950;2023-04-01T08:36:37;95120.81;;;7.53;100.00
55032;BME280;40928;51.076;7.950;2023-04-01T08:39:30;95109.13;;;7.49;100.00
55032;BME280;40928;51.076;7.950;2023-04-01T08:59:24;95122.66;;;7.63;100.00
55032;BME280;40928;51.076;7.950;2023-04-01T09:10:46;95129.81;;;7.73;100.00
55032;BME280;40928;51.076;7.950;2023-04-01T09:19:16;95142.28;;;7.83;100.00
55032;BME280;40928;51.076;7.950;2023-04-01T09:24:40;95143.38;;;7.71;100.00
55032;BME280;40928;51.076;7.950;2023-04-01T09:27:30;95155.59;;;7.72;100.00
55032;BME280;40928;51.076;7.950;2023-04-01T09:35:58;95160.91;;;7.83;100.00
55032;BME280;40928;51.076;7.950;2023-04-01T09:41:11;95164.09;;;7.85;100.00
55032;BME280;40928;51.076;7.950;2023-04-01T09:44:23;95164.63;;;7.82;100.00
55032;BME280;40928;51.076;7.950;2023-04-01T09:48:02;95158.53;;;7.66;100.00
55032;BME280;40928;51.076;7.950;2023-04-01T09:50:46;95168.91;;;7.77;100.00
55032;BME280;40928;51.076;7.950;2023-04-01T09:53:32;95168.91;;;7.77;100.00
55032;BME280;40928;51.076;7.950;2023-04-01T10:56:38;95212.44;;;8.23;100.00
55032;BME280;40928;51.076;7.950;2023-04-01T11:09:50;95216.38;;;8.36;100.00
55032;BME280;40928;51.076;7.950;2023-04-01T11:15:20;95226.78;;;8.32;100.00
55032;BME280;40928;51.076;7.950;2023-04-01T11:40:56;95248.59;;;8.24;100.00
55032;BME280;40928;51.076;7.950;2023-04-01T11:44:11;95249.66;;;8.23;100.00
55032;BME280;40928;51.076;7.950;2023-04-01T11:47:28;95256.28;;;8.20;100.00
55032;BME280;40928;51.076;7.950;2023-04-01T12:15:13;95300.44;;;8.27;100.00
55032;BME280;40928;51.076;7.950;2023-04-01T12:17:46;95288.50;;;8.24;100.00
55032;BME280;40928;51.076;7.950;2023-04-01T12:28:54;95297.25;;;8.30;100.00
55032;BME280;40928;51.076;7.950;2023-04-01T12:34:33;95307.06;;;8.45;100.00
55032;BME280;40928;51.076;7.950;2023-04-01T12:39:51;95310.53;;;8.45;100.00
55032;BME280;40928;51.076;7.950;2023-04-01T13:13:56;95342.19;;;8.42;100.00
55032;BME280;40928;51.076;7.950;2023-04-01T13:19:46;95353.41;;;8.49;100.00
55032;BME280;40928;51.076;7.950;2023-04-01T13:22:29;95351.00;;;8.52;100.00
55032;BME280;40928;51.076;7.950;2023-04-01T13:28:10;95365.09;;;8.48;100.00
55032;BME280;40928;51.076;7.950;2023-04-01T13:33:36;95365.84;;;8.38;100.00
55032;BME280;40928;51.076;7.950;2023-04-01T13:36:27;95365.88;;;8.43;100.00
55032;BME280;40928;51.076;7.950;2023-04-01T13:42:00;95370.38;;;8.32;100.00
55032;BME280;40928;51.076;7.950;2023-04-01T13:44:38;95361.88;;;8.30;100.00
55032;BME280;40928;51.076;7.950;2023-04-01T13:55:46;95385.28;;;8.38;100.00
55032;BME280;40928;51.076;7.950;2023-04-01T14:01:19;95385.56;;;8.32;100.00
55032;BME280;40928;51.076;7.950;2023-04-01T14:06:37;95393.00;;;8.30;100.00
55032;BME280;40928;51.076;7.950;2023-04-01T14:09:29;95388.47;;;8.30;100.00
55032;BME280;40928;51.076;7.950;2023-04-01T14:20:27;95398.03;;;8.26;100.00
55032;BME280;40928;51.076;7.950;2023-04-01T14:23:13;95394.56;;;8.20;100.00
55032;BME280;40928;51.076;7.950;2023-04-01T14:31:26;95406.53;;;8.18;100.00
55032;BME280;40928;51.076;7.950;2023-04-01T14:34:21;95411.88;;;8.23;100.00
55032;BME280;40928;51.076;7.950;2023-04-01T14:43:09;95410.56;;;8.31;100.00
55032;BME280;40928;51.076;7.950;2023-04-01T14:48:39;95409.72;;;8.30;100.00
55032;BME280;40928;51.076;7.950;2023-04-01T14:51:29;95416.41;;;8.38;100.00
55032;BME280;40928;51.076;7.950;2023-04-01T14:54:44;95420.63;;;8.34;100.00
55032;BME280;40928;51.076;7.950;2023-04-01T14:57:28;95417.72;;;8.35;100.00
55032;BME280;40928;51.076;7.950;2023-04-01T15:08:53;95431.31;;;8.44;100.00
55032;BME280;40928;51.076;7.950;2023-04-01T15:33:06;95468.81;;;8.37;100.00
55032;BME280;40928;51.076;7.950;2023-04-01T15:38:53;95462.16;;;8.45;100.00
55032;BME280;40928;51.076;7.950;2023-04-01T15:41:27;95482.91;;;8.43;100.00
55032;BME280;40928;51.076;7.950;2023-04-01T15:47:28;95485.81;;;8.42;100.00
55032;BME280;40928;51.076;7.950;2023-04-01T16:01:21;95497.28;;;8.42;100.00
55032;BME280;40928;51.076;7.950;2023-04-01T16:12:17;95503.91;;;8.40;100.00
55032;BME280;40928;51.076;7.950;2023-04-01T16:20:19;95509.50;;;8.33;100.00
55032;BME280;40928;51.076;7.950;2023-04-01T16:23:08;95515.59;;;8.33;100.00
55032;BME280;40928;51.076;7.950;2023-04-01T16:25:39;95513.97;;;8.27;100.00
55032;BME280;40928;51.076;7.950;2023-04-01T16:30:56;95513.97;;;8.27;100.00
55032;BME280;40928;51.076;7.950;2023-04-01T16:48:21;95539.50;;;8.28;100.00
55032;BME280;40928;51.076;7.950;2023-04-01T16:51:11;95536.84;;;8.28;100.00
55032;BME280;40928;51.076;7.950;2023-04-01T16:56:25;95548.78;;;8.15;100.00
55032;BME280;40928;51.076;7.950;2023-04-01T17:01:53;95563.13;;;8.14;100.00
55032;BME280;40928;51.076;7.950;2023-04-01T17:04:57;95567.13;;;8.17;100.00
55032;BME280;40928;51.076;7.950;2023-04-01T17:08:14;95567.91;;;8.12;100.00
55032;BME280;40928;51.076;7.950;2023-04-01T17:10:27;95572.09;;;8.03;100.00
55032;BME280;40928;51.076;7.950;2023-04-01T17:30:02;95594.97;;;7.99;100.00
55032;BME280;40928;51.076;7.950;2023-04-01T17:46:31;95621.31;;;8.05;100.00
55032;BME280;40928;51.076;7.950;2023-04-01T17:49:26;95626.25;;;7.91;100.00
55032;BME280;40928;51.076;7.950;2023-04-01T17:52:19;95632.63;;;7.85;100.00
55032;BME280;40928;51.076;7.950;2023-04-01T17:54:54;95631.03;;;7.84;100.00
55032;BME280;40928;51.076;7.950;2023-04-01T18:15:41;95659.38;;;7.73;100.00
55032;BME280;40928;51.076;7.950;2023-04-01T18:24:18;95674.81;;;7.76;100.00
55032;BME280;40928;51.076;7.950;2023-04-01T18:27:02;95681.47;;;7.79;100.00
55032;BME280;40928;51.076;7.950;2023-04-01T18:35:14;95700.28;;;7.72;100.00
55032;BME280;40928;51.076;7.950;2023-04-01T18:37:57;95701.34;;;7.71;100.00
55032;BME280;40928;51.076;7.950;2023-04-01T18:40:34;95708.19;;;7.67;100.00
55032;BME280;40928;51.076;7.950;2023-04-01T18:45:57;95713.78;;;7.71;100.00
55032;BME280;40928;51.076;7.950;2023-04-01T18:48:40;95715.63;;;7.65;100.00
55032;BME280;40928;51.076;7.950;2023-04-01T18:51:37;95720.19;;;7.70;100.00
55032;BME280;40928;51.076;7.950;2023-04-01T18:56:47;95722.84;;;7.70;100.00
55032;BME280;40928;51.076;7.950;2023-04-01T18:59:50;95726.00;;;7.67;100.00
55032;BME280;40928;51.076;7.950;2023-04-01T19:05:23;95732.88;;;7.62;100.00
55032;BME280;40928;51.076;7.950;2023-04-01T19:07:53;95737.34;;;7.57;100.00
55032;BME280;40928;51.076;7.950;2023-04-01T19:10:40;95740.53;;;7.59;100.00
55032;BME280;40928;51.076;7.950;2023-04-01T19:13:14;95740.53;;;7.59;100.00
55032;BME280;40928;51.076;7.950;2023-04-01T19:21:56;95759.09;;;7.54;100.00
55032;BME280;40928;51.076;7.950;2023-04-01T19:27:29;95761.25;;;7.57;100.00
55032;BME280;40928;51.076;7.950;2023-04-01T19:33:22;95769.41;;;7.50;100.00
55032;BME280;40928;51.076;7.950;2023-04-01T19:38:40;95775.03;;;7.54;100.00
55032;BME280;40928;51.076;7.950;2023-04-01T19:41:30;95783.28;;;7.57;100.00
55032;BME280;40928;51.076;7.950;2023-04-01T19:46:53;95787.81;;;7.57;100.00
55032;BME280;40928;51.076;7.950;2023-04-01T19:49:46;95789.16;;;7.59;100.00
55032;BME280;40928;51.076;7.950;2023-04-01T19:52:33;95785.16;;;7.57;100.00
55032;BME280;40928;51.076;7.950;2023-04-01T20:00:44;95803.66;;;7.46;100.00
55032;BME280;40928;51.076;7.950;2023-04-01T20:08:57;95820.63;;;7.45;100.00
55032;BME280;40928;51.076;7.950;2023-04-01T20:11:34;95821.97;;;7.48;100.00
55032;BME280;40928;51.076;7.950;2023-04-01T20:14:19;95832.91;;;7.52;100.00
55032;BME280;40928;51.076;7.950;2023-04-01T20:17:23;95829.69;;;7.50;100.00
55032;BME280;40928;51.076;7.950;2023-04-01T20:20:02;95835.56;;;7.52;100.00
55032;BME280;40928;51.076;7.950;2023-04-01T20:22:38;95840.88;;;7.52;100.00
55032;BME280;40928;51.076;7.950;2023-04-01T20:25:30;95843.50;;;7.46;100.00
55032;BME280;40928;51.076;7.950;2023-04-01T20:28:02;95841.19;;;7.33;100.00
55032;BME280;40928;51.076;7.950;2023-04-01T20:38:41;95865.72;;;7.40;100.00
55032;BME280;40928;51.076;7.950;2023-04-01T20:47:10;95869.97;;;7.41;100.00
55032;BME280;40928;51.076;7.950;2023-04-01T20:49:41;95877.13;;;7.41;100.00
55032;BME280;40928;51.076;7.950;2023-04-01T21:00:53;95889.72;;;7.51;100.00
55032;BME280;40928;51.076;7.950;2023-04-01T21:15:11;95900.81;;;7.42;100.00
55032;BME280;40928;51.076;7.950;2023-04-01T21:20:46;95911.16;;;7.44;100.00
55032;BME280;40928;51.076;7.950;2023-04-01T21:26:35;95922.53;;;7.39;100.00
55032;BME280;40928;51.076;7.950;2023-04-01T21:34:35;95927.53;;;7.36;100.00
55032;BME280;40928;51.076;7.950;2023-04-01T21:42:32;95939.69;;;7.31;100.00
55032;BME280;40928;51.076;7.950;2023-04-01T21:45:44;95950.63;;;7.35;100.00
55032;BME280;40928;51.076;7.950;2023-04-01T22:00:11;95970.34;;;7.39;100.00
55032;BME280;40928;51.076;7.950;2023-04-01T22:12:12;95982.56;;;7.40;100.00
55032;BME280;40928;51.076;7.950;2023-04-01T22:17:11;95985.97;;;7.36;100.00
55032;BME280;40928;51.076;7.950;2023-04-01T22:25:22;95998.59;;;7.28;100.00
55032;BME280;40928;51.076;7.950;2023-04-01T22:27:59;95999.97;;;7.31;100.00
55032;BME280;40928;51.076;7.950;2023-04-01T22:30:51;96000.94;;;7.25;100.00
55032;BME280;40928;51.076;7.950;2023-04-01T22:33:41;96004.66;;;7.24;100.00
55032;BME280;40928;51.076;7.950;2023-04-01T22:37:01;96011.09;;;7.28;100.00
55032;BME280;40928;51.076;7.950;2023-04-01T22:42:35;96013.78;;;7.33;100.00
55032;BME280;40928;51.076;7.950;2023-04-01T22:45:25;96020.41;;;7.30;100.00
55032;BME280;40928;51.076;7.950;2023-04-01T22:55:49;96030.16;;;7.25;100.00
55032;BME280;40928;51.076;7.950;2023-04-01T22:58:53;96044.56;;;7.29;100.00
55032;BME280;40928;51.076;7.950;2023-04-01T23:01:24;96041.66;;;7.30;100.00
55032;BME280;40928;51.076;7.950;2023-04-01T23:03:52;96033.69;;;7.30;100.00
55032;BME280;40928;51.076;7.950;2023-04-01T23:06:51;96042.13;;;7.27;100.00
55032;BME280;40928;51.076;7.950;2023-04-01T23:09:25;96050.34;;;7.26;100.00
55032;BME280;40928;51.076;7.950;2023-04-01T23:11:57;96046.66;;;7.27;100.00
55032;BME280;40928;51.076;7.950;2023-04-01T23:16:57;96050.19;;;7.32;100.00
55032;BME280;40928;51.076;7.950;2023-04-01T23:25:29;96066.91;;;7.33;100.00
55032;BME280;40928;51.076;7.950;2023-04-01T23:30:47;96083.19;;;7.37;100.00
55032;BME280;40928;51.076;7.950;2023-04-01T23:38:17;96082.94;;;7.38;100.00
55032;BME280;40928;51.076;7.950;2023-04-01T23:40:44;96093.31;;;7.40;100.00
55032;BME280;40928;51.076;7.950;2023-04-01T23:43:39;96092.84;;;7.43;100.00
55032;BME280;40928;51.076;7.950;2023-04-01T23:46:06;96095.75;;;7.41;100.00
55032;BME280;40928;51.076;7.950;2023-04-01T23:48:36;96105.31;;;7.42;100.00
55032;BME280;40928;51.076;7.950;2023-04-01T23:51:03;96110.06;;;7.40;100.00
55032;BME280;40928;51.076;7.950;2023-04-01T23:53:35;96113.28;;;7.42;100.00
55032;BME280;40928;51.076;7.950;2023-04-01T23:56:02;96111.44;;;7.43;100.00
55032;BME280;40928;51.076;7.950;2023-04-01T23:58:42;96113.28;;;7.42;100.00
